Time;durP1;ratioP1;P1;durP2;ratioP2;P2;SDS_P1;SDS_P2;PMS_P1;PMS_P2;Temp;Humidity;BMP_temperature;BMP_pressure;BME280_temperature;BME280_humidity;BME280_pressure;Samples;Min_cycle;Max_cycle;Signal;HPM_P1;HPM_P2
2021/08/22 00:00:13;;;;;;;8.07;2.03;;;;;;;;;;4996042;28;20401;-48
2021/08/22 00:02:38;;;;;;;10.20;2.25;;;;;;;;;;5003316;28;20029;-51
2021/08/22 00:05:05;;;;;;;17.42;2.78;;;;;;;;;;4995222;28;20041;-48
2021/08/22 00:07:30;;;;;;;6.13;2.50;;;;;;;;;;4999957;28;20122;-50
2021/08/22 00:09:56;;;;;;;10.68;3.40;;;;;;;;;;4999010;28;20039;-50
2021/08/22 00:12:21;;;;;;;5.03;2.60;;;;;;;;;;4993426;28;20476;-50
2021/08/22 00:14:47;;;;;;;6.88;2.10;;;;;;;;;;4999359;28;20065;-49
2021/08/22 00:17:13;;;;;;;5.70;2.58;;;;;;;;;;4999370;28;20034;-51
2021/08/22 00:19:39;;;;;;;9.80;3.22;;;;;;;;;;4997088;28;20088;-49
2021/08/22 00:22:04;;;;;;;17.77;3.53;;;;;;;;;;5001984;28;20447;-49
2021/08/22 00:24:30;;;;;;;7.25;2.40;;;;;;;;;;4994638;28;20062;-49
2021/08/22 00:26:56;;;;;;;9.32;3.05;;;;;;;;;;5000991;28;20489;-52
2021/08/22 00:29:21;;;;;;;7.95;2.90;;;;;;;;;;5002447;28;20030;-50
2021/08/22 00:31:47;;;;;;;14.02;3.47;;;;;;;;;;5001242;28;20142;-50
2021/08/22 00:34:12;;;;;;;14.32;3.05;;;;;;;;;;5002910;28;20531;-53
2021/08/22 00:36:38;;;;;;;10.07;3.03;;;;;;;;;;5000528;28;20034;-48
2021/08/22 00:39:05;;;;;;;14.65;2.95;;;;;;;;;;5004020;28;20041;-48
2021/08/22 00:41:31;;;;;;;7.40;2.80;;;;;;;;;;5004069;28;20088;-49
2021/08/22 00:43:58;;;;;;;8.32;2.97;;;;;;;;;;5006241;28;20049;-48
2021/08/22 00:46:23;;;;;;;8.77;2.60;;;;;;;;;;5004235;28;20087;-50
2021/08/22 00:48:49;;;;;;;12.65;2.80;;;;;;;;;;5005660;28;20488;-49
2021/08/22 00:51:18;;;;;;;9.65;3.17;;;;;;;;;;4997485;28;20038;-50
2021/08/22 00:53:44;;;;;;;9.23;3.10;;;;;;;;;;5001168;28;20069;-50
2021/08/22 00:56:10;;;;;;;7.90;2.45;;;;;;;;;;4999723;28;20029;-50
2021/08/22 00:58:36;;;;;;;8.07;2.63;;;;;;;;;;4999861;28;20076;-51
2021/08/22 01:01:04;;;;;;;10.55;3.15;;;;;;;;;;4986864;28;20042;-52
2021/08/22 01:03:40;;;;;;;7.47;2.40;;;;;;;;;;4978388;28;20397;-49
2021/08/22 01:06:37;;;;;;;7.65;3.05;;;;;;;;;;4976656;28;20030;-50
2021/08/22 01:09:17;;;;;;;12.65;2.78;;;;;;;;;;4984168;28;20029;-49
2021/08/22 01:11:44;;;;;;;12.05;2.75;;;;;;;;;;4983406;28;20497;-49
2021/08/22 01:14:12;;;;;;;6.90;2.75;;;;;;;;;;4981597;28;20096;-49
2021/08/22 01:16:46;;;;;;;8.70;2.63;;;;;;;;;;4979710;28;20033;-49
2021/08/22 01:19:33;;;;;;;11.50;2.90;;;;;;;;;;4979757;28;20022;-48
2021/08/22 01:22:01;;;;;;;14.75;2.88;;;;;;;;;;4979096;28;20416;-51
2021/08/22 01:24:27;;;;;;;10.23;2.90;;;;;;;;;;4978695;28;20038;-49
2021/08/22 01:26:55;;;;;;;10.00;3.03;;;;;;;;;;4979331;28;20050;-51
2021/08/22 01:29:24;;;;;;;13.35;3.47;;;;;;;;;;4978588;28;20033;-50
2021/08/22 01:31:50;;;;;;;18.77;4.55;;;;;;;;;;4982336;28;20062;-49
2021/08/22 01:34:19;;;;;;;10.38;2.97;;;;;;;;;;4978229;28;20041;-48
2021/08/22 01:36:45;;;;;;;9.57;2.83;;;;;;;;;;4981982;28;20518;-49
2021/08/22 01:39:12;;;;;;;7.82;2.70;;;;;;;;;;4972225;28;20126;-49
2021/08/22 01:41:39;;;;;;;11.65;3.40;;;;;;;;;;4979339;28;20548;-50
2021/08/22 01:44:06;;;;;;;13.73;3.67;;;;;;;;;;4981264;28;20073;-53
2021/08/22 01:46:36;;;;;;;18.33;3.38;;;;;;;;;;4980986;28;20034;-50
2021/08/22 01:49:04;;;;;;;10.98;3.35;;;;;;;;;;4981353;28;20030;-49
2021/08/22 01:51:31;;;;;;;8.52;2.67;;;;;;;;;;4977789;28;20022;-52
2021/08/22 01:53:59;;;;;;;8.82;3.22;;;;;;;;;;4978749;28;20031;-49
2021/08/22 01:56:32;;;;;;;10.85;3.85;;;;;;;;;;4983432;28;20027;-49
2021/08/22 01:58:58;;;;;;;5.47;2.75;;;;;;;;;;4981414;28;20497;-48
2021/08/22 02:01:24;;;;;;;9.05;3.17;;;;;;;;;;4987310;28;20026;-49
2021/08/22 02:03:59;;;;;;;9.57;3.20;;;;;;;;;;4973836;28;20080;-51
2021/08/22 02:06:29;;;;;;;9.48;3.25;;;;;;;;;;4982580;28;20460;-52
2021/08/22 02:08:59;;;;;;;15.02;3.80;;;;;;;;;;4982155;28;20026;-52
2021/08/22 02:11:27;;;;;;;10.95;3.75;;;;;;;;;;4979246;28;20500;-50
2021/08/22 02:13:55;;;;;;;12.32;3.92;;;;;;;;;;4981790;28;20026;-49
2021/08/22 02:16:28;;;;;;;8.90;3.60;;;;;;;;;;4981817;28;20031;-50
2021/08/22 02:18:56;;;;;;;7.90;3.70;;;;;;;;;;4984988;28;20026;-50
2021/08/22 02:21:23;;;;;;;17.50;5.15;;;;;;;;;;4982062;28;20370;-49
2021/08/22 02:23:50;;;;;;;13.02;3.85;;;;;;;;;;4981899;28;20050;-50
2021/08/22 02:26:18;;;;;;;11.70;4.03;;;;;;;;;;4972241;28;20066;-52
2021/08/22 02:28:44;;;;;;;15.00;4.38;;;;;;;;;;4979176;28;20038;-53
2021/08/22 02:31:14;;;;;;;12.57;3.58;;;;;;;;;;4983810;28;20532;-52
2021/08/22 02:33:39;;;;;;;6.22;3.33;;;;;;;;;;4983049;28;20460;-50
2021/08/22 02:36:05;;;;;;;12.75;3.13;;;;;;;;;;4975156;28;20039;-52
2021/08/22 02:38:30;;;;;;;10.63;3.13;;;;;;;;;;4982770;28;20037;-49
2021/08/22 02:40:56;;;;;;;12.15;3.20;;;;;;;;;;4980594;28;20117;-52
2021/08/22 02:43:21;;;;;;;11.65;3.45;;;;;;;;;;4982552;28;20125;-51
2021/08/22 02:45:47;;;;;;;10.65;3.50;;;;;;;;;;4986628;28;20510;-50
2021/08/22 02:48:13;;;;;;;10.65;3.42;;;;;;;;;;4978418;28;20041;-51
2021/08/22 02:50:40;;;;;;;6.95;3.30;;;;;;;;;;4975056;28;20030;-54
2021/08/22 02:53:06;;;;;;;9.20;2.90;;;;;;;;;;4985515;28;20062;-50
2021/08/22 02:55:32;;;;;;;10.52;3.03;;;;;;;;;;4983815;28;20096;-50
2021/08/22 02:57:57;;;;;;;14.10;3.35;;;;;;;;;;4975771;28;20042;-50
2021/08/22 03:00:23;;;;;;;7.40;2.50;;;;;;;;;;4984064;28;20290;-49
2021/08/22 03:02:49;;;;;;;9.10;3.00;;;;;;;;;;4985549;28;20030;-52
2021/08/22 03:05:14;;;;;;;10.82;2.97;;;;;;;;;;4978363;28;20030;-51
2021/08/22 03:07:40;;;;;;;6.53;2.45;;;;;;;;;;4977472;28;20570;-52
2021/08/22 03:10:06;;;;;;;12.38;3.38;;;;;;;;;;4982497;28;20026;-52
2021/08/22 03:12:32;;;;;;;9.13;2.88;;;;;;;;;;4980072;28;20096;-52
2021/08/22 03:14:58;;;;;;;10.18;2.45;;;;;;;;;;4976128;28;20035;-49
2021/08/22 03:17:23;;;;;;;11.57;2.97;;;;;;;;;;4977486;28;20076;-52
2021/08/22 03:19:51;;;;;;;11.82;3.55;;;;;;;;;;4976446;28;20383;-51
2021/08/22 03:22:17;;;;;;;11.18;3.33;;;;;;;;;;4978857;28;20038;-52
2021/08/22 03:24:43;;;;;;;12.75;3.67;;;;;;;;;;4985205;28;20112;-52
2021/08/22 03:27:08;;;;;;;7.43;2.80;;;;;;;;;;4982657;28;20030;-51
2021/08/22 03:29:34;;;;;;;8.93;3.08;;;;;;;;;;4979069;28;20514;-52
2021/08/22 03:31:59;;;;;;;7.10;2.97;;;;;;;;;;4975113;28;20069;-50
2021/08/22 03:34:25;;;;;;;10.27;3.58;;;;;;;;;;4974594;28;20540;-51
2021/08/22 03:36:50;;;;;;;5.90;2.80;;;;;;;;;;4980921;28;20034;-50
2021/08/22 03:39:16;;;;;;;12.85;3.83;;;;;;;;;;4985763;28;20023;-50
2021/08/22 03:41:41;;;;;;;13.68;3.63;;;;;;;;;;4977600;28;20034;-50
2021/08/22 03:44:08;;;;;;;12.70;3.65;;;;;;;;;;4974692;28;20075;-49
2021/08/22 03:46:34;;;;;;;14.23;4.10;;;;;;;;;;4980217;28;20042;-49
2021/08/22 03:49:00;;;;;;;6.95;3.80;;;;;;;;;;4976683;28;20046;-51
2021/08/22 03:51:26;;;;;;;9.73;4.28;;;;;;;;;;4981683;28;20063;-52
2021/08/22 03:53:52;;;;;;;12.93;4.25;;;;;;;;;;4978091;28;20031;-50
2021/08/22 03:56:18;;;;;;;18.33;6.03;;;;;;;;;;4981138;28;20511;-50
2021/08/22 03:58:43;;;;;;;16.52;3.85;;;;;;;;;;4979575;28;20030;-49
2021/08/22 04:01:09;;;;;;;9.88;3.65;;;;;;;;;;4982859;28;20062;-50
2021/08/22 04:03:38;;;;;;;15.00;4.15;;;;;;;;;;4979634;28;20397;-50
2021/08/22 04:06:04;;;;;;;8.25;3.53;;;;;;;;;;4978298;28;20034;-50
2021/08/22 04:08:31;;;;;;;11.23;3.33;;;;;;;;;;4979084;28;20026;-49
2021/08/22 04:10:57;;;;;;;7.85;3.50;;;;;;;;;;4984884;28;20037;-50
2021/08/22 04:13:22;;;;;;;12.32;4.00;;;;;;;;;;4984025;28;20022;-51
2021/08/22 04:15:49;;;;;;;7.40;3.28;;;;;;;;;;4984603;28;20505;-51
2021/08/22 04:18:16;;;;;;;14.75;3.92;;;;;;;;;;4985570;28;20034;-50
2021/08/22 04:20:41;;;;;;;10.75;3.63;;;;;;;;;;4979691;28;20089;-50
2021/08/22 04:23:07;;;;;;;11.05;3.95;;;;;;;;;;4983814;28;20058;-51
2021/08/22 04:25:33;;;;;;;10.15;3.42;;;;;;;;;;4984261;28;20176;-50
2021/08/22 04:27:58;;;;;;;6.55;3.47;;;;;;;;;;4987735;28;20030;-49
2021/08/22 04:30:24;;;;;;;12.63;4.00;;;;;;;;;;4982958;28;20038;-49
2021/08/22 04:32:49;;;;;;;12.05;3.65;;;;;;;;;;4980949;28;20038;-50
2021/08/22 04:35:15;;;;;;;13.25;4.20;;;;;;;;;;4984926;28;20120;-49
2021/08/22 04:37:42;;;;;;;11.15;4.65;;;;;;;;;;4981221;28;20493;-49
2021/08/22 04:40:08;;;;;;;12.15;4.43;;;;;;;;;;4986012;28;20030;-49
2021/08/22 04:42:34;;;;;;;10.27;4.50;;;;;;;;;;4986896;28;20535;-48
2021/08/22 04:45:00;;;;;;;11.05;4.00;;;;;;;;;;4987238;28;22242;-51
2021/08/22 04:47:26;;;;;;;13.30;5.15;;;;;;;;;;4983687;28;20035;-50
2021/08/22 04:49:52;;;;;;;12.70;5.03;;;;;;;;;;4979723;28;20035;-50
2021/08/22 04:52:17;;;;;;;14.48;4.68;;;;;;;;;;4984620;28;20032;-49
2021/08/22 04:54:43;;;;;;;11.30;5.03;;;;;;;;;;4981677;28;20026;-49
2021/08/22 04:57:08;;;;;;;11.55;4.85;;;;;;;;;;4982308;28;20028;-48
2021/08/22 04:59:34;;;;;;;12.85;4.63;;;;;;;;;;4980299;28;20041;-49
2021/08/22 05:01:59;;;;;;;11.95;4.47;;;;;;;;;;4981246;28;20046;-51
2021/08/22 05:04:25;;;;;;;10.27;4.25;;;;;;;;;;4982002;28;20395;-49
2021/08/22 05:06:52;;;;;;;11.30;5.00;;;;;;;;;;4981476;28;20026;-51
2021/08/22 05:09:17;;;;;;;17.23;4.78;;;;;;;;;;4984322;28;20471;-50
2021/08/22 05:11:44;;;;;;;10.75;4.30;;;;;;;;;;4976977;28;20042;-51
2021/08/22 05:14:09;;;;;;;8.98;4.45;;;;;;;;;;4983158;28;20041;-52
2021/08/22 05:16:35;;;;;;;8.85;4.32;;;;;;;;;;4985535;28;20034;-49
2021/08/22 05:19:01;;;;;;;9.82;4.10;;;;;;;;;;4981141;28;20033;-51
2021/08/22 05:21:27;;;;;;;6.75;3.65;;;;;;;;;;4983290;28;20056;-48
2021/08/22 05:23:53;;;;;;;16.02;4.93;;;;;;;;;;4979065;28;20047;-50
2021/08/22 05:26:19;;;;;;;11.02;3.95;;;;;;;;;;4977139;28;20088;-51
2021/08/22 05:28:44;;;;;;;11.07;3.88;;;;;;;;;;4972083;28;20454;-51
2021/08/22 05:31:11;;;;;;;8.75;3.33;;;;;;;;;;4981655;28;20058;-51
2021/08/22 05:33:36;;;;;;;7.97;3.60;;;;;;;;;;4976938;28;20048;-49
2021/08/22 05:36:18;;;;;;;7.78;3.15;;;;;;;;;;4979676;28;20030;-51
2021/08/22 05:38:44;;;;;;;6.23;3.10;;;;;;;;;;4982402;28;20035;-52
2021/08/22 05:41:09;;;;;;;6.78;2.83;;;;;;;;;;4978298;28;20056;-47
2021/08/22 05:43:35;;;;;;;9.55;3.75;;;;;;;;;;4985560;28;20070;-48
2021/08/22 05:46:00;;;;;;;8.18;2.90;;;;;;;;;;4984230;28;20081;-51
2021/08/22 05:48:26;;;;;;;11.52;3.10;;;;;;;;;;4980652;28;20081;-49
2021/08/22 05:50:52;;;;;;;10.13;2.90;;;;;;;;;;4981464;28;20062;-49
2021/08/22 05:53:18;;;;;;;9.38;2.40;;;;;;;;;;4984420;28;20114;-50
2021/08/22 05:55:44;;;;;;;9.85;3.25;;;;;;;;;;4981457;28;20121;-49
2021/08/22 05:58:10;;;;;;;6.57;2.78;;;;;;;;;;4978755;28;20409;-50
2021/08/22 06:00:37;;;;;;;11.45;3.15;;;;;;;;;;4980892;28;20038;-51
2021/08/22 06:03:03;;;;;;;9.18;2.97;;;;;;;;;;4982819;28;20038;-52
2021/08/22 06:05:29;;;;;;;8.70;2.70;;;;;;;;;;4993489;28;20380;-50
2021/08/22 06:07:55;;;;;;;9.65;2.22;;;;;;;;;;4977655;28;20045;-51
2021/08/22 06:10:20;;;;;;;7.68;3.00;;;;;;;;;;4973831;28;20513;-52
2021/08/22 06:12:49;;;;;;;7.10;2.45;;;;;;;;;;4976180;28;20073;-51
2021/08/22 06:15:14;;;;;;;5.32;2.00;;;;;;;;;;4975836;28;20031;-50
2021/08/22 06:17:40;;;;;;;8.27;2.88;;;;;;;;;;4978335;28;20096;-50
2021/08/22 06:20:06;;;;;;;10.07;2.75;;;;;;;;;;4974321;28;20497;-50
2021/08/22 06:22:32;;;;;;;10.75;2.22;;;;;;;;;;4980984;28;20034;-49
2021/08/22 06:24:57;;;;;;;15.75;2.95;;;;;;;;;;4983440;28;20034;-51
2021/08/22 06:27:23;;;;;;;6.20;2.20;;;;;;;;;;4977803;28;20410;-51
2021/08/22 06:29:48;;;;;;;13.85;3.20;;;;;;;;;;4973532;28;20486;-49
2021/08/22 06:32:14;;;;;;;6.90;1.85;;;;;;;;;;4977722;28;20512;-49
2021/08/22 06:34:39;;;;;;;13.55;2.72;;;;;;;;;;4974872;28;20066;-48
2021/08/22 06:37:05;;;;;;;15.07;2.88;;;;;;;;;;4989341;28;20042;-51
2021/08/22 06:39:31;;;;;;;8.65;2.72;;;;;;;;;;4978616;28;20058;-50
2021/08/22 06:41:56;;;;;;;10.52;2.70;;;;;;;;;;4980968;28;20062;-51
2021/08/22 06:44:22;;;;;;;9.88;2.63;;;;;;;;;;4976863;28;20027;-50
2021/08/22 06:46:48;;;;;;;8.63;2.85;;;;;;;;;;4971102;28;20023;-50
2021/08/22 06:49:14;;;;;;;7.03;3.42;;;;;;;;;;4980573;28;20381;-51
2021/08/22 06:51:40;;;;;;;5.45;3.10;;;;;;;;;;4977556;28;20052;-49
2021/08/22 06:54:05;;;;;;;12.23;3.55;;;;;;;;;;4980923;28;20065;-49
2021/08/22 06:56:32;;;;;;;8.18;3.50;;;;;;;;;;4973191;28;20046;-50
2021/08/22 06:58:57;;;;;;;10.80;4.70;;;;;;;;;;4977804;28;20093;-50
2021/08/22 07:01:23;;;;;;;7.25;3.58;;;;;;;;;;4976515;28;20022;-51
2021/08/22 07:03:49;;;;;;;9.75;4.07;;;;;;;;;;4977698;28;20074;-50
2021/08/22 07:06:15;;;;;;;12.25;4.15;;;;;;;;;;4974135;28;20030;-52
2021/08/22 07:08:41;;;;;;;7.50;3.47;;;;;;;;;;4978020;28;20038;-52
2021/08/22 07:11:06;;;;;;;10.10;4.22;;;;;;;;;;4977056;28;20066;-50
2021/08/22 07:13:33;;;;;;;6.43;3.60;;;;;;;;;;4982947;28;20043;-51
2021/08/22 07:15:58;;;;;;;10.32;3.65;;;;;;;;;;4975315;28;20035;-49
2021/08/22 07:18:24;;;;;;;7.30;3.38;;;;;;;;;;4978882;28;20517;-49
2021/08/22 07:20:49;;;;;;;9.18;3.60;;;;;;;;;;4974200;28;20062;-51
2021/08/22 07:23:15;;;;;;;9.45;3.55;;;;;;;;;;4980505;28;20034;-51
2021/08/22 07:25:41;;;;;;;5.32;3.50;;;;;;;;;;4973096;28;20405;-50
2021/08/22 07:28:07;;;;;;;9.15;3.75;;;;;;;;;;4976498;28;20044;-53
2021/08/22 07:30:32;;;;;;;8.85;3.13;;;;;;;;;;4975890;28;20030;-49
2021/08/22 07:33:01;;;;;;;11.38;3.53;;;;;;;;;;4978261;28;20497;-50
2021/08/22 07:35:26;;;;;;;7.60;3.55;;;;;;;;;;4976373;28;20034;-51
2021/08/22 07:37:52;;;;;;;9.57;3.38;;;;;;;;;;4972397;28;20532;-49
2021/08/22 07:40:17;;;;;;;7.60;3.38;;;;;;;;;;4977029;28;20516;-50
2021/08/22 07:42:43;;;;;;;8.02;3.40;;;;;;;;;;4976660;28;20296;-50
2021/08/22 07:45:09;;;;;;;7.57;3.10;;;;;;;;;;4972830;28;20489;-50
2021/08/22 07:47:34;;;;;;;7.72;3.60;;;;;;;;;;4980530;28;20046;-50
2021/08/22 07:50:00;;;;;;;7.07;2.88;;;;;;;;;;4979604;28;20033;-49
2021/08/22 07:52:26;;;;;;;8.27;3.20;;;;;;;;;;4977480;28;20497;-52
2021/08/22 07:54:52;;;;;;;11.68;4.10;;;;;;;;;;4976731;28;20062;-50
2021/08/22 07:57:17;;;;;;;6.93;2.53;;;;;;;;;;4974748;28;20067;-51
2021/08/22 07:59:44;;;;;;;6.50;3.00;;;;;;;;;;4970131;28;20030;-51
2021/08/22 08:02:12;;;;;;;4.50;2.88;;;;;;;;;;4976511;28;20050;-50
2021/08/22 08:04:38;;;;;;;5.18;2.92;;;;;;;;;;4973280;28;20034;-49
2021/08/22 08:07:03;;;;;;;9.82;3.47;;;;;;;;;;4978160;28;20708;-53
2021/08/22 08:09:29;;;;;;;5.15;2.70;;;;;;;;;;4980282;28;20149;-49
2021/08/22 08:11:57;;;;;;;4.63;2.78;;;;;;;;;;4966636;28;20035;-51
2021/08/22 08:14:24;;;;;;;7.22;2.88;;;;;;;;;;4969986;28;20043;-50
2021/08/22 08:16:49;;;;;;;7.35;3.20;;;;;;;;;;4976503;28;20049;-52
2021/08/22 08:19:15;;;;;;;7.68;2.90;;;;;;;;;;4973034;28;20034;-53
2021/08/22 08:21:41;;;;;;;8.23;3.40;;;;;;;;;;4975561;28;20041;-52
2021/08/22 08:24:06;;;;;;;6.50;3.08;;;;;;;;;;4974059;28;20509;-50
2021/08/22 08:26:31;;;;;;;11.32;3.85;;;;;;;;;;4974209;28;20418;-51
2021/08/22 08:28:57;;;;;;;7.82;3.28;;;;;;;;;;4975038;28;20034;-49
2021/08/22 08:31:22;;;;;;;5.57;3.10;;;;;;;;;;4994585;28;20049;-50
2021/08/22 08:33:48;;;;;;;10.40;3.85;;;;;;;;;;4977909;28;20034;-52
2021/08/22 08:36:14;;;;;;;7.63;3.10;;;;;;;;;;4982020;28;20132;-51
2021/08/22 08:38:40;;;;;;;6.00;3.00;;;;;;;;;;4980241;28;20105;-48
2021/08/22 08:41:06;;;;;;;5.30;3.00;;;;;;;;;;4977035;28;20081;-52
2021/08/22 08:43:31;;;;;;;6.68;2.92;;;;;;;;;;4979328;28;20054;-49
2021/08/22 08:46:12;;;;;;;10.40;3.85;;;;;;;;;;4979246;28;20497;-49
2021/08/22 08:48:57;;;;;;;8.32;3.28;;;;;;;;;;4974635;28;20027;-49
2021/08/22 08:51:47;;;;;;;6.15;3.25;;;;;;;;;;4973666;28;20026;-49
2021/08/22 08:54:27;;;;;;;7.32;3.53;;;;;;;;;;4972553;28;20049;-50
2021/08/22 08:56:53;;;;;;;10.43;3.30;;;;;;;;;;4978321;28;20053;-51
2021/08/22 08:59:19;;;;;;;11.02;3.53;;;;;;;;;;4988161;28;20030;-51
2021/08/22 09:01:44;;;;;;;9.05;3.70;;;;;;;;;;4980019;28;20100;-50
2021/08/22 09:04:13;;;;;;;11.43;3.60;;;;;;;;;;4982022;28;20038;-53
2021/08/22 09:07:16;;;;;;;8.07;3.78;;;;;;;;;;4981567;28;20030;-52
2021/08/22 09:10:18;;;;;;;9.75;4.00;;;;;;;;;;4978932;28;20441;-51
2021/08/22 09:13:02;;;;;;;;;;;;;;;;;;4976108;28;20026;-50
2021/08/22 09:15:55;;;;;;;8.25;4.30;;;;;;;;;;4978426;28;19921;-50
2021/08/22 09:21:50;;;;;;;7.10;3.53;;;;;;;;;;4949238;28;20039;-78
2021/08/22 09:24:31;;;;;;;9.77;3.78;;;;;;;;;;4951808;28;20035;-77
2021/08/22 09:27:34;;;;;;;9.23;3.50;;;;;;;;;;4963896;28;20041;-78
2021/08/22 09:30:36;;;;;;;6.07;3.42;;;;;;;;;;4947304;28;20035;-77
2021/08/22 09:33:39;;;;;;;13.05;4.22;;;;;;;;;;4947741;28;20039;-77
2021/08/22 09:36:23;;;;;;;12.68;3.63;;;;;;;;;;4946153;28;20070;-76
2021/08/22 09:39:26;;;;;;;9.60;3.35;;;;;;;;;;4949464;28;20034;-76
2021/08/22 09:42:29;;;;;;;6.57;3.85;;;;;;;;;;4948522;28;20444;-77
2021/08/22 09:45:09;;;;;;;6.45;2.90;;;;;;;;;;4961850;28;20038;-76
2021/08/22 09:47:59;;;;;;;8.57;3.10;;;;;;;;;;4945896;28;20042;-79
2021/08/22 09:50:44;;;;;;;6.18;2.85;;;;;;;;;;4948512;28;20031;-78
2021/08/22 09:53:27;;;;;;;8.60;3.85;;;;;;;;;;4949372;28;20107;-77
2021/08/22 09:56:14;;;;;;;15.70;2.88;;;;;;;;;;4949022;28;20106;-76
2021/08/22 09:58:55;;;;;;;7.72;2.88;;;;;;;;;;4947614;28;20031;-77
2021/08/22 10:01:23;;;;;;;12.77;2.92;;;;;;;;;;4956827;28;20027;-77
2021/08/22 10:04:16;;;;;;;7.50;2.92;;;;;;;;;;4949624;28;20020;-77
2021/08/22 10:06:44;;;;;;;4.47;2.47;;;;;;;;;;4948032;28;20062;-78
2021/08/22 10:09:19;;;;;;;5.75;2.45;;;;;;;;;;4948262;28;20042;-78
2021/08/22 10:12:01;;;;;;;6.13;2.70;;;;;;;;;;4948716;28;20062;-78
2021/08/22 10:14:30;;;;;;;;;;;;;;;;;;4948250;28;20027;-78
2021/08/22 10:16:57;;;;;;;5.32;2.53;;;;;;;;;;4948936;28;19918;-78
2021/08/22 10:19:30;;;;;;;8.18;2.83;;;;;;;;;;4946780;28;20607;-77
2021/08/22 10:22:21;;;;;;;8.35;2.80;;;;;;;;;;4929418;28;20066;-75
2021/08/22 10:24:54;;;;;;;7.88;3.35;;;;;;;;;;4947732;28;20035;-78
2021/08/22 10:27:36;;;;;;;8.68;3.45;;;;;;;;;;4948097;28;20031;-78
2021/08/22 10:30:03;;;;;;;9.25;3.28;;;;;;;;;;4946358;28;20032;-78
2021/08/22 10:32:51;;;;;;;7.63;3.10;;;;;;;;;;4946461;28;20035;-78
2021/08/22 10:35:19;;;;;;;7.20;3.38;;;;;;;;;;4943094;28;20031;-78
2021/08/22 10:37:45;;;;;;;8.25;3.17;;;;;;;;;;4946803;28;20861;-78
2021/08/22 10:40:23;;;;;;;4.93;2.80;;;;;;;;;;4947037;28;20504;-77
2021/08/22 10:43:09;;;;;;;13.15;3.17;;;;;;;;;;4946849;28;20156;-78
2021/08/22 10:45:40;;;;;;;5.15;2.97;;;;;;;;;;4940402;28;20073;-77
2021/08/22 10:48:07;;;;;;;8.77;3.03;;;;;;;;;;4942968;28;20023;-78
2021/08/22 10:51:08;;;;;;;7.43;2.90;;;;;;;;;;4946271;28;20390;-78
2021/08/22 10:53:43;;;;;;;5.25;2.72;;;;;;;;;;4945818;28;20053;-78
2021/08/22 10:56:24;;;;;;;6.13;2.88;;;;;;;;;;4962479;28;20030;-76
2021/08/22 10:58:58;;;;;;;6.13;3.20;;;;;;;;;;4948122;28;20027;-78
2021/08/22 11:01:28;;;;;;;5.55;3.20;;;;;;;;;;4943963;28;20035;-77
2021/08/22 11:04:23;;;;;;;5.32;3.10;;;;;;;;;;4948235;28;20027;-79
2021/08/22 11:07:02;;;;;;;6.53;3.15;;;;;;;;;;4944918;28;20134;-77
2021/08/22 11:09:42;;;;;;;8.73;2.88;;;;;;;;;;4936712;28;20024;-78
2021/08/22 11:12:24;;;;;;;6.97;3.03;;;;;;;;;;4945863;28;20031;-79
2021/08/22 11:14:50;;;;;;;6.32;3.00;;;;;;;;;;4946730;28;20043;-80
2021/08/22 11:17:15;;;;;;;8.50;3.05;;;;;;;;;;4943747;28;20053;-78
2021/08/22 11:19:41;;;;;;;8.77;3.22;;;;;;;;;;4943120;28;20051;-78
2021/08/22 11:22:27;;;;;;;5.68;3.42;;;;;;;;;;4947243;28;20832;-78
2021/08/22 11:24:55;;;;;;;12.90;3.28;;;;;;;;;;4930701;29;20420;-78
2021/08/22 11:27:29;;;;;;;4.65;3.00;;;;;;;;;;4948263;28;20066;-78
2021/08/22 11:29:56;;;;;;;5.90;3.38;;;;;;;;;;4952042;28;20046;-77
2021/08/22 11:32:22;;;;;;;7.05;3.13;;;;;;;;;;4945011;28;20114;-78
2021/08/22 11:34:48;;;;;;;5.72;2.80;;;;;;;;;;4948203;28;20106;-77
2021/08/22 11:37:14;;;;;;;9.18;4.25;;;;;;;;;;4946536;28;20051;-78
2021/08/22 11:39:40;;;;;;;5.90;2.97;;;;;;;;;;4929690;29;20041;-77
2021/08/22 11:42:05;;;;;;;6.88;3.03;;;;;;;;;;4929630;29;20043;-78
2021/08/22 11:44:31;;;;;;;5.60;2.92;;;;;;;;;;4946563;28;20489;-78
2021/08/22 11:46:57;;;;;;;5.80;2.95;;;;;;;;;;4929860;29;20122;-78
2021/08/22 11:49:24;;;;;;;5.75;2.85;;;;;;;;;;4945579;28;20031;-78
2021/08/22 11:51:54;;;;;;;5.80;2.53;;;;;;;;;;4946918;28;20031;-77
2021/08/22 11:54:21;;;;;;;8.88;2.67;;;;;;;;;;4940475;28;20055;-75
2021/08/22 11:56:47;;;;;;;6.80;2.55;;;;;;;;;;4940349;28;20039;-77
2021/08/22 11:59:26;;;;;;;6.82;2.70;;;;;;;;;;4946619;28;20110;-77
2021/08/22 12:02:19;;;;;;;5.05;2.65;;;;;;;;;;4946726;28;20039;-78
2021/08/22 12:04:45;;;;;;;4.18;2.08;;;;;;;;;;4942505;28;20113;-77
2021/08/22 12:07:10;;;;;;;3.75;2.55;;;;;;;;;;4945939;28;20043;-77
2021/08/22 12:09:36;;;;;;;7.63;2.70;;;;;;;;;;4947558;28;20678;-78
2021/08/22 12:12:02;;;;;;;3.72;2.47;;;;;;;;;;4934507;28;20660;-77
2021/08/22 12:14:32;;;;;;;5.15;2.50;;;;;;;;;;4946451;28;20030;-78
2021/08/22 12:16:59;;;;;;;4.43;2.42;;;;;;;;;;4946225;28;20035;-77
2021/08/22 12:19:30;;;;;;;4.97;2.60;;;;;;;;;;4944071;28;20039;-78
2021/08/22 12:21:56;;;;;;;4.82;2.65;;;;;;;;;;4945978;28;20033;-78
2021/08/22 12:24:30;;;;;;;7.80;3.03;;;;;;;;;;4945736;28;20837;-76
2021/08/22 12:27:00;;;;;;;6.03;2.45;;;;;;;;;;4948958;28;20042;-78
2021/08/22 12:29:36;;;;;;;12.65;3.05;;;;;;;;;;4938372;28;20623;-78
2021/08/22 12:32:15;;;;;;;4.45;2.42;;;;;;;;;;4941883;28;20488;-77
2021/08/22 12:34:41;;;;;;;6.38;2.50;;;;;;;;;;4944835;28;20035;-78
2021/08/22 12:37:17;;;;;;;8.80;2.67;;;;;;;;;;4956966;28;20023;-79
2021/08/22 12:39:43;;;;;;;6.50;2.85;;;;;;;;;;4949480;28;20019;-79
2021/08/22 12:42:15;;;;;;;7.03;2.58;;;;;;;;;;4941171;28;20037;-78
2021/08/22 12:44:40;;;;;;;8.55;2.92;;;;;;;;;;4941200;28;20042;-79
2021/08/22 12:47:06;;;;;;;5.88;2.80;;;;;;;;;;4943342;28;20034;-78
2021/08/22 12:49:34;;;;;;;8.82;2.80;;;;;;;;;;4945163;28;20066;-77
2021/08/22 12:52:06;;;;;;;6.30;2.95;;;;;;;;;;4947398;28;20031;-78
2021/08/22 12:54:32;;;;;;;5.03;2.78;;;;;;;;;;4947218;28;20491;-78
2021/08/22 12:56:59;;;;;;;5.75;2.58;;;;;;;;;;4949664;28;20027;-77
2021/08/22 12:59:25;;;;;;;4.03;2.65;;;;;;;;;;4942019;28;20031;-78
2021/08/22 13:01:51;;;;;;;8.45;3.42;;;;;;;;;;4953006;28;20412;-78
2021/08/22 13:04:19;;;;;;;6.38;2.60;;;;;;;;;;4942378;28;20050;-78
2021/08/22 13:06:45;;;;;;;4.15;2.22;;;;;;;;;;4956679;28;20054;-77
2021/08/22 13:09:10;;;;;;;8.30;2.88;;;;;;;;;;4948249;28;20027;-78
2021/08/22 13:11:36;;;;;;;5.80;2.92;;;;;;;;;;4949742;28;20034;-78
2021/08/22 13:14:03;;;;;;;6.82;2.45;;;;;;;;;;4944353;28;20128;-77
2021/08/22 13:16:28;;;;;;;5.65;2.83;;;;;;;;;;4947426;28;20027;-78
2021/08/22 13:18:54;;;;;;;2.95;1.98;;;;;;;;;;4961679;28;20093;-78
2021/08/22 13:21:21;;;;;;;4.20;2.50;;;;;;;;;;4959226;28;20678;-78
2021/08/22 13:23:47;;;;;;;5.32;2.35;;;;;;;;;;4935621;28;20084;-78
2021/08/22 13:26:14;;;;;;;4.07;2.55;;;;;;;;;;4940924;28;20486;-78
2021/08/22 13:28:40;;;;;;;7.38;2.60;;;;;;;;;;4945385;28;20038;-78
2021/08/22 13:31:07;;;;;;;9.48;2.15;;;;;;;;;;4954982;28;20032;-78
2021/08/22 13:33:32;;;;;;;6.38;2.40;;;;;;;;;;4955664;28;20110;-78
2021/08/22 13:35:58;;;;;;;7.90;2.33;;;;;;;;;;4945654;28;20059;-78
2021/08/22 13:38:24;;;;;;;5.47;2.65;;;;;;;;;;4943911;28;20315;-78
2021/08/22 13:40:50;;;;;;;6.18;2.63;;;;;;;;;;4956486;28;20023;-78
2021/08/22 13:43:15;;;;;;;5.40;2.17;;;;;;;;;;4936742;28;20039;-78
2021/08/22 13:45:42;;;;;;;6.00;2.30;;;;;;;;;;4948034;28;20122;-75
2021/08/22 13:48:07;;;;;;;4.28;2.30;;;;;;;;;;4943297;28;20034;-77
2021/08/22 13:50:34;;;;;;;6.45;2.97;;;;;;;;;;4955867;28;20031;-78
2021/08/22 13:53:01;;;;;;;3.67;2.25;;;;;;;;;;4944807;28;20117;-78
2021/08/22 13:55:27;;;;;;;5.50;2.50;;;;;;;;;;4945334;28;20034;-77
2021/08/22 13:57:52;;;;;;;5.07;2.70;;;;;;;;;;4943680;28;20038;-77
2021/08/22 14:00:18;;;;;;;9.45;2.55;;;;;;;;;;4946638;28;20043;-78
2021/08/22 14:02:43;;;;;;;3.63;2.20;;;;;;;;;;4947143;28;20031;-77
2021/08/22 14:05:09;;;;;;;8.63;2.80;;;;;;;;;;4946436;28;20540;-78
2021/08/22 14:07:35;;;;;;;4.10;2.80;;;;;;;;;;4951833;28;20451;-79
2021/08/22 14:10:00;;;;;;;8.63;2.95;;;;;;;;;;4940864;28;20031;-79
2021/08/22 14:12:26;;;;;;;6.63;2.70;;;;;;;;;;4939948;28;20078;-77
2021/08/22 14:14:52;;;;;;;4.10;2.38;;;;;;;;;;4937858;28;20036;-79
2021/08/22 14:17:17;;;;;;;5.78;2.85;;;;;;;;;;4939202;28;20043;-78
2021/08/22 14:19:46;;;;;;;4.15;2.60;;;;;;;;;;4936261;28;20450;-79
2021/08/22 14:22:12;;;;;;;8.35;3.05;;;;;;;;;;4942367;28;20042;-79
2021/08/22 14:24:38;;;;;;;4.43;2.83;;;;;;;;;;4946436;28;20035;-78
2021/08/22 14:27:03;;;;;;;4.43;2.55;;;;;;;;;;4930893;28;20721;-78
2021/08/22 14:29:29;;;;;;;5.63;2.65;;;;;;;;;;4948740;28;20015;-78
2021/08/22 14:31:54;;;;;;;5.13;2.58;;;;;;;;;;4946976;28;20539;-78
2021/08/22 14:34:19;;;;;;;3.95;2.35;;;;;;;;;;4947562;28;20031;-78
2021/08/22 14:36:45;;;;;;;5.32;2.42;;;;;;;;;;4946844;28;20027;-78
2021/08/22 14:39:11;;;;;;;4.60;2.70;;;;;;;;;;4946389;28;20607;-78
2021/08/22 14:41:36;;;;;;;8.80;2.75;;;;;;;;;;4944834;28;20074;-78
2021/08/22 14:44:02;;;;;;;6.22;2.55;;;;;;;;;;4947834;28;20716;-75
2021/08/22 14:46:27;;;;;;;6.90;2.60;;;;;;;;;;4945627;28;20677;-75
2021/08/22 14:48:53;;;;;;;3.80;2.15;;;;;;;;;;4947953;28;20070;-76
2021/08/22 14:51:21;;;;;;;5.15;2.08;;;;;;;;;;4947741;28;20027;-76